createdAt,value
2023-03-06T00:00:37.091Z,44.02
2023-03-06T00:03:05.804Z,43.92
2023-03-06T00:05:34.101Z,44.11
2023-03-06T00:08:02.449Z,44.14
2023-03-06T00:10:33.219Z,43.90
2023-03-06T00:13:05.136Z,44.21
2023-03-06T00:15:34.906Z,43.91
2023-03-06T00:18:06.477Z,44.09
2023-03-06T00:20:35.963Z,44.26
2023-03-06T00:23:04.236Z,44.35
2023-03-06T00:25:32.563Z,43.90
2023-03-06T00:28:00.750Z,44.29
2023-03-06T00:30:29.160Z,44.08
2023-03-06T00:32:58.897Z,44.59
2023-03-06T00:35:27.187Z,44.38
2023-03-06T00:37:55.473Z,44.29
2023-03-06T00:40:23.900Z,44.56
2023-03-06T00:42:52.133Z,44.31
2023-03-06T00:45:20.557Z,44.23
2023-03-06T00:47:48.833Z,44.66
2023-03-06T00:50:19.808Z,44.31
2023-03-06T00:52:48.094Z,44.45
2023-03-06T00:55:16.534Z,44.26
2023-03-06T00:57:44.804Z,44.59
2023-03-06T01:00:15.112Z,44.62
2023-03-06T01:02:43.443Z,44.69
2023-03-06T01:05:14.713Z,44.37
2023-03-06T01:07:44.369Z,44.29
2023-03-06T01:10:13.491Z,44.68
2023-03-06T01:12:41.707Z,44.64
2023-03-06T01:15:12.364Z,44.35
2023-03-06T01:17:40.661Z,44.66
2023-03-06T01:20:12.089Z,44.37
2023-03-06T01:22:40.292Z,44.44
2023-03-06T01:25:11.202Z,44.72
2023-03-06T01:27:39.434Z,44.54
2023-03-06T01:30:09.847Z,44.42
2023-03-06T01:32:38.103Z,44.61
2023-03-06T01:35:07.399Z,44.77
2023-03-06T01:37:37.150Z,44.79
2023-03-06T01:40:07.315Z,44.94
2023-03-06T01:42:37.026Z,44.52
2023-03-06T01:45:09.560Z,44.44
2023-03-06T01:47:37.961Z,44.88
2023-03-06T01:50:08.485Z,44.87
2023-03-06T01:52:41.006Z,44.91
2023-03-06T01:55:12.751Z,44.50
2023-03-06T01:57:46.008Z,44.63
2023-03-06T02:00:18.098Z,44.79
2023-03-06T02:02:52.707Z,44.66
2023-03-06T02:05:21.111Z,44.60
2023-03-06T02:07:51.492Z,44.71
2023-03-06T02:10:21.879Z,44.79
2023-03-06T02:12:53.465Z,45.00
2023-03-06T02:15:25.749Z,45.02
2023-03-06T02:17:54.603Z,44.99
2023-03-06T02:20:31.041Z,44.78
2023-03-06T02:23:06.619Z,44.82
2023-03-06T02:25:40.243Z,45.01
2023-03-06T02:28:12.352Z,44.71
2023-03-06T02:30:42.119Z,45.05
2023-03-06T02:33:14.578Z,44.62
2023-03-06T02:35:48.621Z,44.73
2023-03-06T02:38:19.978Z,44.77
2023-03-06T02:40:52.632Z,44.79
2023-03-06T02:43:26.898Z,44.89
2023-03-06T02:45:55.660Z,44.76
2023-03-06T02:48:23.927Z,45.05
2023-03-06T02:50:52.207Z,45.05
2023-03-06T02:53:22.202Z,44.92
2023-03-06T02:55:52.306Z,44.98
2023-03-06T02:58:20.702Z,44.90
2023-03-06T03:00:50.128Z,45.12
2023-03-06T03:03:18.975Z,44.96
2023-03-06T03:05:47.251Z,44.72
2023-03-06T03:08:15.529Z,45.09
2023-03-06T03:10:43.799Z,44.94
2023-03-06T03:13:13.431Z,44.58
2023-03-06T03:15:41.779Z,45.03
2023-03-06T03:18:11.919Z,45.04
2023-03-06T03:20:44.172Z,44.84
2023-03-06T03:23:12.402Z,44.96
2023-03-06T03:25:40.619Z,44.81
2023-03-06T03:28:08.872Z,44.84
2023-03-06T03:30:40.023Z,45.02
2023-03-06T03:33:08.700Z,44.65
2023-03-06T03:35:37.454Z,44.75
2023-03-06T03:38:05.839Z,44.77
2023-03-06T03:40:34.165Z,44.87
2023-03-06T03:43:02.417Z,45.20
2023-03-06T03:45:30.639Z,45.07
2023-03-06T03:48:00.248Z,45.06
2023-03-06T03:50:28.569Z,45.01
2023-03-06T03:52:56.807Z,45.22
2023-03-06T03:55:25.011Z,45.15
2023-03-06T03:57:53.326Z,45.28
2023-03-06T04:00:22.199Z,45.45
2023-03-06T04:02:50.576Z,45.48
2023-03-06T04:05:20.470Z,45.49
2023-03-06T04:07:48.801Z,45.51
2023-03-06T04:10:17.287Z,45.60
2023-03-06T04:12:45.554Z,45.48
2023-03-06T04:15:13.834Z,45.40
2023-03-06T04:17:42.063Z,45.47
2023-03-06T04:20:12.309Z,45.43
2023-03-06T04:22:41.937Z,45.13
2023-03-06T04:25:11.031Z,45.54
2023-03-06T04:27:39.277Z,45.19
2023-03-06T04:30:09.889Z,45.47
2023-03-06T04:32:38.146Z,45.57
2023-03-06T04:35:07.363Z,45.55
2023-03-06T04:37:35.697Z,45.32
2023-03-06T04:40:06.127Z,45.51
2023-03-06T04:42:34.594Z,45.64
2023-03-06T04:45:02.889Z,45.56
2023-03-06T04:47:31.289Z,45.42
2023-03-06T04:49:59.501Z,45.44
2023-03-06T04:52:27.716Z,45.61
2023-03-06T04:54:55.994Z,45.21
2023-03-06T04:57:25.704Z,45.44
2023-03-06T04:59:53.998Z,45.47
2023-03-06T05:02:24.255Z,45.40
2023-03-06T05:04:52.538Z,45.52
2023-03-06T05:07:20.818Z,45.59
2023-03-06T05:09:49.063Z,45.38
2023-03-06T05:12:17.349Z,45.58
2023-03-06T05:14:48.079Z,45.50
2023-03-06T05:17:16.476Z,45.77
2023-03-06T05:19:44.756Z,45.72
2023-03-06T05:22:13.011Z,45.76
2023-03-06T05:24:41.730Z,45.62
2023-03-06T05:27:09.996Z,45.53
2023-03-06T05:29:38.250Z,45.91
2023-03-06T05:32:08.879Z,45.82
2023-03-06T05:34:37.285Z,45.58
2023-03-06T05:37:05.726Z,45.41
2023-03-06T05:39:34.038Z,45.90
2023-03-06T05:42:02.376Z,45.87
2023-03-06T05:44:33.363Z,45.79
2023-03-06T05:47:01.911Z,45.99
2023-03-06T05:49:35.865Z,45.81
2023-03-06T05:52:06.041Z,45.88
2023-03-06T05:54:36.369Z,45.90
2023-03-06T05:57:05.447Z,45.95
2023-03-06T05:59:34.332Z,45.57
2023-03-06T06:02:05.514Z,45.71
2023-03-06T06:04:35.256Z,45.97
2023-03-06T06:07:03.515Z,46.12
2023-03-06T06:09:31.956Z,45.73
2023-03-06T06:12:03.629Z,45.88
2023-03-06T06:14:35.664Z,46.06
2023-03-06T06:17:04.002Z,45.84
2023-03-06T06:19:34.252Z,45.71
2023-03-06T06:22:03.835Z,45.75
2023-03-06T06:24:33.166Z,45.82
2023-03-06T06:27:03.939Z,46.07
2023-03-06T06:29:33.135Z,45.75
2023-03-06T06:32:01.777Z,45.90
2023-03-06T06:34:31.761Z,46.02
2023-03-06T06:37:01.409Z,45.80
2023-03-06T06:39:30.452Z,46.03
2023-03-06T06:42:15.458Z,45.87
2023-03-06T06:44:46.987Z,45.79
2023-03-06T06:47:22.766Z,45.87
2023-03-06T06:49:52.989Z,46.24
2023-03-06T06:52:23.380Z,46.17
2023-03-06T06:54:51.596Z,45.87
2023-03-06T06:57:20.100Z,46.29
2023-03-06T06:59:48.349Z,46.28
2023-03-06T07:02:17.558Z,45.94
2023-03-06T07:05:02.429Z,46.18
2023-03-06T07:07:34.774Z,46.11
2023-03-06T07:10:03.650Z,46.34
2023-03-06T07:12:32.898Z,45.95
2023-03-06T07:15:01.255Z,46.14
2023-03-06T07:17:29.689Z,46.47
2023-03-06T07:19:58.052Z,46.31
2023-03-06T07:22:26.427Z,46.43
2023-03-06T07:24:56.180Z,46.46
2023-03-06T07:27:26.149Z,45.96
2023-03-06T07:29:54.457Z,46.37
2023-03-06T07:32:22.807Z,46.37
2023-03-06T07:34:51.255Z,46.13
2023-03-06T07:37:19.615Z,46.12
2023-03-06T07:39:47.898Z,46.00
2023-03-06T07:42:17.577Z,46.49
2023-03-06T07:44:45.818Z,46.23
2023-03-06T07:47:14.766Z,46.55
2023-03-06T07:49:43.030Z,46.44
2023-03-06T07:52:12.817Z,46.37
2023-03-06T07:54:41.045Z,46.18
2023-03-06T07:57:09.302Z,46.20
2023-03-06T07:59:38.917Z,46.24
2023-03-06T08:02:07.244Z,46.42
2023-03-06T08:04:36.064Z,46.27
2023-03-06T08:07:04.378Z,46.04
2023-03-06T08:09:32.678Z,46.03
2023-03-06T08:12:00.997Z,46.32
2023-03-06T08:14:29.322Z,46.14
2023-03-06T08:16:59.011Z,46.68
2023-03-06T08:19:27.258Z,46.55
2023-03-06T08:21:55.487Z,46.67
2023-03-06T08:24:23.765Z,46.57
2023-03-06T08:26:52.058Z,46.66
2023-03-06T08:29:20.285Z,46.57
2023-03-06T08:31:48.815Z,46.69
2023-03-06T08:34:21.554Z,46.87
2023-03-06T08:36:50.132Z,46.82
2023-03-06T08:39:18.528Z,46.92
2023-03-06T08:41:46.808Z,46.91
2023-03-06T08:44:15.099Z,46.51
2023-03-06T08:46:43.388Z,46.58
2023-03-06T08:49:14.583Z,46.66
2023-03-06T08:51:44.238Z,46.56
2023-03-06T08:54:14.103Z,46.54
2023-03-06T08:56:42.436Z,46.68
2023-03-06T08:59:15.953Z,46.30
2023-03-06T09:01:45.167Z,46.47
2023-03-06T09:04:13.429Z,46.36
2023-03-06T09:06:45.451Z,46.37
2023-03-06T09:09:14.316Z,46.28
2023-03-06T09:11:42.593Z,46.64
2023-03-06T09:14:10.881Z,46.15
2023-03-06T09:16:39.264Z,46.27
2023-03-06T09:19:07.821Z,46.32
2023-03-06T09:21:36.124Z,46.49
2023-03-06T09:24:06.193Z,46.25
2023-03-06T09:26:46.625Z,45.80
2023-03-06T09:29:17.577Z,46.16
2023-03-06T09:31:46.124Z,46.11
2023-03-06T09:34:14.698Z,46.20
2023-03-06T09:36:55.841Z,46.28
2023-03-06T09:39:27.613Z,45.92
2023-03-06T09:41:58.203Z,46.10
2023-03-06T09:44:28.880Z,46.13
2023-03-06T09:47:34.559Z,46.31
2023-03-06T09:50:16.671Z,46.17
2023-03-06T09:52:56.976Z,45.92
2023-03-06T09:55:29.338Z,45.97
2023-03-06T09:58:07.104Z,45.65
2023-03-06T10:00:41.875Z,45.85
2023-03-06T10:03:21.103Z,45.79
2023-03-06T10:05:54.677Z,45.63
2023-03-06T10:08:30.340Z,45.30
2023-03-06T10:11:06.669Z,45.26
2023-03-06T10:13:42.415Z,45.02
2023-03-06T10:16:27.773Z,45.13
2023-03-06T10:18:59.754Z,44.94
2023-03-06T10:21:40.428Z,44.95
2023-03-06T10:24:23.668Z,44.80
2023-03-06T10:27:00.231Z,44.29
2023-03-06T10:29:39.311Z,44.30
2023-03-06T10:32:17.857Z,43.92
2023-03-06T10:34:47.014Z,43.84
2023-03-06T10:37:21.570Z,43.47
2023-03-06T10:39:56.167Z,42.96
2023-03-06T10:42:28.615Z,42.55
2023-03-06T10:45:12.115Z,42.58
2023-03-06T10:47:40.800Z,42.57
2023-03-06T10:50:25.828Z,42.28
2023-03-06T10:53:04.464Z,42.36
2023-03-06T10:55:35.513Z,42.08
2023-03-06T10:58:24.289Z,42.47
2023-03-06T11:01:06.823Z,42.24
2023-03-06T11:03:36.485Z,42.27
2023-03-06T11:06:12.647Z,42.13
2023-03-06T11:08:43.512Z,41.85
2023-03-06T11:11:18.514Z,41.62
2023-03-06T11:14:00.020Z,41.94
2023-03-06T11:16:30.557Z,41.81
2023-03-06T11:19:03.893Z,41.84
2023-03-06T11:21:34.437Z,41.72
2023-03-06T11:24:07.578Z,41.62
2023-03-06T11:26:43.946Z,41.64
2023-03-06T11:29:38.711Z,41.77
2023-03-06T11:32:13.624Z,41.75
2023-03-06T11:34:50.516Z,41.74
2023-03-06T11:37:27.405Z,41.89
2023-03-06T11:40:06.473Z,41.71
2023-03-06T11:42:40.861Z,41.72
2023-03-06T11:45:28.268Z,41.87
2023-03-06T11:48:05.179Z,42.00
2023-03-06T11:50:38.320Z,41.95
2023-03-06T11:53:10.675Z,42.06
2023-03-06T11:55:47.672Z,41.80
2023-03-06T11:58:58.065Z,42.06
2023-03-06T12:01:34.163Z,41.76
2023-03-06T12:04:27.221Z,41.63
2023-03-06T12:07:07.556Z,41.80
2023-03-06T12:09:47.358Z,41.62
2023-03-06T12:12:34.082Z,41.55
2023-03-06T12:15:25.074Z,41.50
2023-03-06T12:18:12.842Z,41.46
2023-03-06T12:20:58.836Z,41.46
2023-03-06T12:23:51.282Z,41.62
2023-03-06T12:26:55.992Z,41.42
2023-03-06T12:29:41.212Z,41.47
2023-03-06T12:32:21.903Z,41.34
2023-03-06T12:35:16.615Z,41.59
2023-03-06T12:38:00.218Z,41.52
2023-03-06T12:41:09.262Z,41.60
2023-03-06T12:44:15.506Z,41.67
2023-03-06T12:46:48.074Z,41.74
2023-03-06T12:49:32.063Z,41.67
2023-03-06T12:52:06.240Z,41.38
2023-03-06T12:54:38.902Z,41.41
2023-03-06T12:57:09.601Z,41.27
2023-03-06T12:59:43.997Z,41.17
2023-03-06T13:02:59.853Z,41.33
2023-03-06T13:05:53.105Z,41.51
2023-03-06T13:09:08.879Z,41.25
2023-03-06T13:12:26.958Z,41.11
2023-03-06T13:14:58.842Z,41.07
2023-03-06T13:17:36.911Z,41.09
2023-03-06T13:20:37.413Z,41.28
2023-03-06T13:23:49.453Z,41.07
2023-03-06T13:27:02.797Z,41.12
2023-03-06T13:30:23.771Z,40.95
2023-03-06T13:32:53.848Z,40.36
2023-03-06T13:35:53.719Z,40.33
2023-03-06T13:38:53.498Z,40.49
2023-03-06T13:41:54.538Z,40.66
2023-03-06T13:44:42.449Z,40.32
2023-03-06T13:47:59.131Z,39.87
2023-03-06T13:50:38.227Z,39.97
2023-03-06T13:53:55.323Z,40.25
2023-03-06T13:57:10.169Z,40.17
2023-03-06T14:00:29.478Z,39.98
2023-03-06T14:03:47.641Z,39.64
2023-03-06T14:06:52.995Z,38.96
2023-03-06T14:09:28.615Z,38.59
2023-03-06T14:12:03.249Z,38.44
2023-03-06T14:14:42.707Z,38.21
2023-03-06T14:17:21.838Z,37.98
2023-03-06T14:19:51.347Z,37.49
2023-03-06T14:22:24.947Z,37.33
2023-03-06T14:24:58.624Z,36.73
2023-03-06T14:27:49.203Z,36.90
2023-03-06T14:30:23.109Z,36.96
2023-03-06T14:32:55.128Z,36.60
2023-03-06T14:35:28.767Z,36.62
2023-03-06T14:38:00.801Z,36.56
2023-03-06T14:40:33.380Z,36.74
2023-03-06T14:43:21.857Z,36.14
2023-03-06T14:45:56.798Z,36.08
2023-03-06T14:48:27.402Z,36.31
2023-03-06T14:50:57.698Z,35.98
2023-03-06T14:53:29.705Z,36.28
2023-03-06T14:56:01.360Z,36.29
2023-03-06T14:58:36.539Z,36.37
2023-03-06T15:01:08.642Z,36.63
2023-03-06T15:03:44.310Z,36.57
2023-03-06T15:06:18.577Z,36.44
2023-03-06T15:08:50.174Z,36.48
2023-03-06T15:11:18.506Z,36.31
2023-03-06T15:14:02.878Z,36.50
2023-03-06T15:16:32.584Z,36.31
2023-03-06T15:19:03.142Z,36.28
2023-03-06T15:21:39.148Z,36.34
2023-03-06T15:24:33.897Z,36.35
2023-03-06T15:27:07.178Z,36.17
2023-03-06T15:29:39.944Z,36.22
2023-03-06T15:32:27.938Z,36.17
2023-03-06T15:35:38.418Z,36.10
2023-03-06T15:40:59.069Z,36.10
2023-03-06T15:43:28.999Z,36.26
2023-03-06T15:46:02.122Z,36.48
2023-03-06T15:48:30.462Z,36.75
2023-03-06T15:50:58.864Z,37.14
2023-03-06T15:53:27.221Z,37.51
2023-03-06T15:55:55.669Z,37.86
2023-03-06T15:58:26.952Z,38.15
2023-03-06T16:00:55.295Z,38.34
2023-03-06T16:03:25.011Z,38.56
2023-03-06T16:05:53.261Z,38.83
2023-03-06T16:08:21.552Z,39.18
2023-03-06T16:10:51.396Z,39.11
2023-03-06T16:13:27.426Z,39.39
2023-03-06T16:15:56.157Z,39.51
2023-03-06T16:18:25.862Z,39.78
2023-03-06T16:20:54.091Z,39.90
2023-03-06T16:23:22.660Z,39.68
2023-03-06T16:25:51.119Z,39.77
2023-03-06T16:28:19.917Z,39.98
2023-03-06T16:30:48.230Z,39.96
2023-03-06T16:33:16.528Z,40.27
2023-03-06T16:35:47.268Z,40.30
2023-03-06T16:38:16.722Z,40.27
2023-03-06T16:40:45.162Z,40.23
2023-03-06T16:43:16.152Z,40.47
2023-03-06T16:45:44.876Z,40.32
2023-03-06T16:48:17.800Z,40.38
2023-03-06T16:50:47.568Z,40.42
2023-03-06T16:53:16.461Z,40.35
2023-03-06T16:55:44.747Z,40.54
2023-03-06T16:58:13.023Z,40.44
2023-03-06T17:00:41.445Z,40.65
2023-03-06T17:03:09.778Z,40.51
2023-03-06T17:05:39.308Z,40.70
2023-03-06T17:08:09.003Z,40.51
2023-03-06T17:10:37.294Z,40.77
2023-03-06T17:13:07.336Z,40.58
2023-03-06T17:15:35.840Z,40.41
2023-03-06T17:18:04.517Z,40.58
2023-03-06T17:20:32.835Z,40.23
2023-03-06T17:23:01.146Z,40.35
2023-03-06T17:25:30.791Z,40.39
2023-03-06T17:27:59.054Z,40.36
2023-03-06T17:30:27.342Z,40.36
2023-03-06T17:32:57.013Z,40.79
2023-03-06T17:35:25.355Z,40.81
2023-03-06T17:37:53.640Z,40.73
2023-03-06T17:40:21.957Z,40.63
2023-03-06T17:42:51.717Z,40.63
2023-03-06T17:45:19.959Z,40.77
2023-03-06T17:47:49.233Z,40.59
2023-03-06T17:50:17.861Z,40.64
2023-03-06T17:52:46.147Z,40.53
2023-03-06T17:55:14.436Z,40.72
2023-03-06T17:57:42.719Z,40.53
2023-03-06T18:00:13.972Z,40.57
2023-03-06T18:02:42.240Z,40.66
2023-03-06T18:05:11.329Z,40.82
2023-03-06T18:07:39.656Z,40.87
2023-03-06T18:10:09.221Z,40.97
2023-03-06T18:12:37.488Z,40.98
2023-03-06T18:15:06.779Z,40.78
2023-03-06T18:17:36.396Z,40.73
2023-03-06T18:20:05.021Z,40.80
2023-03-06T18:22:33.365Z,40.89
2023-03-06T18:25:01.636Z,40.81
2023-03-06T18:27:29.948Z,40.92
2023-03-06T18:29:59.065Z,41.05
2023-03-06T18:32:27.381Z,41.02
2023-03-06T18:34:56.975Z,41.15
2023-03-06T18:37:25.287Z,40.90
2023-03-06T18:39:54.107Z,41.13
2023-03-06T18:42:22.417Z,41.03
2023-03-06T18:44:50.674Z,40.94
2023-03-06T18:47:18.946Z,41.27
2023-03-06T18:49:47.185Z,41.32
2023-03-06T18:52:16.830Z,41.35
2023-03-06T18:54:45.721Z,41.16
2023-03-06T18:57:13.972Z,41.25
2023-03-06T18:59:42.199Z,41.23
2023-03-06T19:02:12.300Z,41.11
2023-03-06T19:04:40.585Z,41.42
2023-03-06T19:07:08.901Z,41.68
2023-03-06T19:09:38.579Z,41.46
2023-03-06T19:12:07.854Z,41.36
2023-03-06T19:14:36.369Z,41.68
2023-03-06T19:17:04.708Z,41.60
2023-03-06T19:19:33.347Z,41.65
2023-03-06T19:22:02.101Z,41.58
2023-03-06T19:24:30.460Z,41.49
2023-03-06T19:27:00.136Z,41.72
2023-03-06T19:29:28.525Z,41.68
2023-03-06T19:31:58.901Z,41.87
2023-03-06T19:34:27.239Z,41.87
2023-03-06T19:36:55.478Z,41.90
2023-03-06T19:39:24.400Z,41.78
2023-03-06T19:41:53.461Z,41.90
2023-03-06T19:44:23.288Z,41.77
2023-03-06T19:46:51.570Z,41.87
2023-03-06T19:49:22.241Z,41.84
2023-03-06T19:51:50.539Z,41.88
2023-03-06T19:54:23.327Z,41.98
2023-03-06T19:56:51.838Z,42.04
2023-03-06T19:59:20.174Z,42.06
2023-03-06T20:01:49.818Z,42.29
2023-03-06T20:04:18.161Z,42.14
2023-03-06T20:06:46.767Z,42.15
2023-03-06T20:09:15.078Z,42.13
2023-03-06T20:11:43.774Z,42.48
2023-03-06T20:14:15.387Z,42.17
2023-03-06T20:16:43.686Z,42.59
2023-03-06T20:19:13.583Z,42.28
2023-03-06T20:21:41.895Z,42.52
2023-03-06T20:24:16.665Z,42.28
2023-03-06T20:26:45.578Z,42.31
2023-03-06T20:29:14.308Z,42.50
2023-03-06T20:31:42.538Z,42.56
2023-03-06T20:34:16.719Z,42.33
2023-03-06T20:36:46.122Z,42.55
2023-03-06T20:39:16.820Z,42.33
2023-03-06T20:41:46.471Z,42.51
2023-03-06T20:44:17.963Z,42.74
2023-03-06T20:46:46.593Z,42.57
2023-03-06T20:49:16.432Z,42.66
2023-03-06T20:51:45.239Z,42.73
2023-03-06T20:54:16.888Z,42.81
2023-03-06T20:56:48.996Z,42.66
2023-03-06T20:59:17.634Z,42.82
2023-03-06T21:01:47.971Z,42.77
2023-03-06T21:04:17.903Z,42.77
2023-03-06T21:06:47.379Z,42.47
2023-03-06T21:09:17.396Z,42.71
2023-03-06T21:11:46.602Z,42.31
2023-03-06T21:14:15.578Z,42.37
2023-03-06T21:16:44.381Z,42.34
2023-03-06T21:19:13.108Z,42.38
2023-03-06T21:21:42.945Z,42.63
2023-03-06T21:24:11.398Z,42.65
2023-03-06T21:26:39.818Z,42.72
2023-03-06T21:29:08.200Z,42.74
2023-03-06T21:31:36.630Z,42.56
2023-03-06T21:34:06.311Z,42.83
2023-03-06T21:36:35.068Z,42.70
2023-03-06T21:39:06.841Z,43.08
2023-03-06T21:41:35.877Z,43.08
2023-03-06T21:44:06.725Z,43.20
2023-03-06T21:46:35.499Z,43.05
2023-03-06T21:49:05.018Z,42.86
2023-03-06T21:51:33.664Z,43.15
2023-03-06T21:54:02.157Z,42.86
2023-03-06T21:56:33.401Z,42.78
2023-03-06T21:59:02.317Z,43.05
2023-03-06T22:01:31.240Z,43.06
2023-03-06T22:04:00.119Z,43.16
2023-03-06T22:06:30.562Z,43.16
2023-03-06T22:09:00.855Z,43.13
2023-03-06T22:11:34.211Z,43.09
2023-03-06T22:14:02.677Z,43.24
2023-03-06T22:16:31.095Z,42.87
2023-03-06T22:18:59.968Z,43.16
2023-03-06T22:21:28.502Z,43.26
2023-03-06T22:23:58.775Z,43.41
2023-03-06T22:26:27.824Z,43.31
2023-03-06T22:28:57.641Z,43.45
2023-03-06T22:31:28.510Z,43.25
2023-03-06T22:33:59.106Z,43.04
2023-03-06T22:36:30.159Z,43.30
2023-03-06T22:39:01.200Z,43.33
2023-03-06T22:41:30.412Z,43.19
2023-03-06T22:44:02.246Z,43.07
2023-03-06T22:46:31.384Z,43.12
2023-03-06T22:49:00.991Z,43.18
2023-03-06T22:51:30.466Z,42.98
2023-03-06T22:53:59.150Z,43.25
2023-03-06T22:56:27.672Z,43.31
2023-03-06T22:58:57.566Z,42.98
2023-03-06T23:01:29.670Z,43.07
2023-03-06T23:04:00.247Z,43.28
2023-03-06T23:06:31.466Z,43.04
2023-03-06T23:09:02.386Z,43.31
2023-03-06T23:11:31.532Z,43.31
2023-03-06T23:14:00.128Z,43.40
2023-03-06T23:16:29.785Z,43.18
2023-03-06T23:18:58.101Z,43.32
2023-03-06T23:21:26.498Z,43.30
2023-03-06T23:23:55.621Z,43.51
2023-03-06T23:26:27.353Z,43.55
2023-03-06T23:28:56.637Z,43.43
2023-03-06T23:31:28.658Z,43.68
2023-03-06T23:34:01.879Z,43.57
2023-03-06T23:36:31.482Z,43.43
2023-03-06T23:39:00.069Z,43.46
2023-03-06T23:41:28.616Z,43.63
2023-03-06T23:43:56.948Z,43.38
2023-03-06T23:46:25.360Z,43.53
2023-03-06T23:48:53.814Z,43.57
2023-03-06T23:51:24.224Z,43.56
2023-03-06T23:53:57.322Z,43.54
2023-03-06T23:56:27.188Z,43.66
2023-03-06T23:58:56.190Z,43.77
